sensor_id;sensor_type;location;lat;lon;timestamp;P1;durP1;ratioP1;P2;durP2;ratioP2
61907;SDS011;47864;52.526;19.672;2022-09-13T00:01:58;6.05;;;3.90;;
61907;SDS011;47864;52.526;19.672;2022-09-13T00:04:00;6.88;;;4.20;;
61907;SDS011;47864;52.526;19.672;2022-09-13T00:08:09;4.95;;;3.65;;
61907;SDS011;47864;52.526;19.672;2022-09-13T00:10:12;6.75;;;3.88;;
61907;SDS011;47864;52.526;19.672;2022-09-13T00:12:13;7.40;;;3.55;;
61907;SDS011;47864;52.526;19.672;2022-09-13T00:14:15;7.32;;;4.03;;
61907;SDS011;47864;52.526;19.672;2022-09-13T00:16:18;5.63;;;3.47;;
61907;SDS011;47864;52.526;19.672;2022-09-13T00:18:21;13.25;;;3.75;;
61907;SDS011;47864;52.526;19.672;2022-09-13T00:20:23;5.72;;;3.30;;
61907;SDS011;47864;52.526;19.672;2022-09-13T00:22:25;4.80;;;3.30;;
61907;SDS011;47864;52.526;19.672;2022-09-13T00:24:27;8.55;;;3.33;;
61907;SDS011;47864;52.526;19.672;2022-09-13T00:26:29;5.68;;;3.55;;
61907;SDS011;47864;52.526;19.672;2022-09-13T00:28:31;6.00;;;3.40;;
61907;SDS011;47864;52.526;19.672;2022-09-13T00:30:32;4.82;;;3.25;;
61907;SDS011;47864;52.526;19.672;2022-09-13T00:32:34;7.55;;;3.53;;
61907;SDS011;47864;52.526;19.672;2022-09-13T00:34:36;4.25;;;3.20;;
61907;SDS011;47864;52.526;19.672;2022-09-13T00:36:38;5.82;;;3.50;;
61907;SDS011;47864;52.526;19.672;2022-09-13T00:38:40;4.78;;;3.53;;
61907;SDS011;47864;52.526;19.672;2022-09-13T00:40:43;5.18;;;3.40;;
61907;SDS011;47864;52.526;19.672;2022-09-13T00:42:44;4.13;;;3.20;;
61907;SDS011;47864;52.526;19.672;2022-09-13T00:45:32;5.45;;;3.50;;
61907;SDS011;47864;52.526;19.672;2022-09-13T00:47:12;4.93;;;3.58;;
61907;SDS011;47864;52.526;19.672;2022-09-13T00:49:19;5.13;;;3.70;;
61907;SDS011;47864;52.526;19.672;2022-09-13T00:51:29;4.18;;;3.10;;
61907;SDS011;47864;52.526;19.672;2022-09-13T00:53:32;5.63;;;3.08;;
61907;SDS011;47864;52.526;19.672;2022-09-13T00:57:49;4.90;;;3.17;;
61907;SDS011;47864;52.526;19.672;2022-09-13T00:59:55;5.50;;;3.67;;
61907;SDS011;47864;52.526;19.672;2022-09-13T01:02:02;4.25;;;3.30;;
61907;SDS011;47864;52.526;19.672;2022-09-13T01:04:04;4.18;;;3.17;;
61907;SDS011;47864;52.526;19.672;2022-09-13T01:06:15;8.88;;;4.93;;
61907;SDS011;47864;52.526;19.672;2022-09-13T01:08:22;15.98;;;4.35;;
61907;SDS011;47864;52.526;19.672;2022-09-13T01:10:24;13.10;;;5.10;;
61907;SDS011;47864;52.526;19.672;2022-09-13T01:14:53;13.32;;;5.45;;
61907;SDS011;47864;52.526;19.672;2022-09-13T01:16:57;7.85;;;4.78;;
61907;SDS011;47864;52.526;19.672;2022-09-13T01:18:59;7.65;;;4.90;;
61907;SDS011;47864;52.526;19.672;2022-09-13T01:23:54;10.82;;;5.43;;
61907;SDS011;47864;52.526;19.672;2022-09-13T01:30:35;14.40;;;4.90;;
61907;SDS011;47864;52.526;19.672;2022-09-13T01:35:14;23.42;;;6.05;;
61907;SDS011;47864;52.526;19.672;2022-09-13T01:39:59;17.15;;;5.32;;
61907;SDS011;47864;52.526;19.672;2022-09-13T01:42:25;14.85;;;4.82;;
61907;SDS011;47864;52.526;19.672;2022-09-13T01:45:39;22.98;;;5.57;;
61907;SDS011;47864;52.526;19.672;2022-09-13T01:52:15;46.35;;;12.10;;
61907;SDS011;47864;52.526;19.672;2022-09-13T01:54:29;33.63;;;10.27;;
61907;SDS011;47864;52.526;19.672;2022-09-13T01:56:40;37.20;;;9.30;;
61907;SDS011;47864;52.526;19.672;2022-09-13T01:58:59;29.60;;;7.45;;
61907;SDS011;47864;52.526;19.672;2022-09-13T02:01:07;37.97;;;6.20;;
61907;SDS011;47864;52.526;19.672;2022-09-13T02:03:42;53.95;;;6.10;;
61907;SDS011;47864;52.526;19.672;2022-09-13T02:06:17;32.87;;;5.07;;
61907;SDS011;47864;52.526;19.672;2022-09-13T02:08:44;16.50;;;4.30;;
61907;SDS011;47864;52.526;19.672;2022-09-13T02:10:59;14.30;;;5.03;;
61907;SDS011;47864;52.526;19.672;2022-09-13T02:13:19;9.57;;;5.57;;
61907;SDS011;47864;52.526;19.672;2022-09-13T02:15:27;22.77;;;5.72;;
61907;SDS011;47864;52.526;19.672;2022-09-13T02:17:38;38.20;;;6.00;;
61907;SDS011;47864;52.526;19.672;2022-09-13T02:19:46;15.30;;;5.57;;
61907;SDS011;47864;52.526;19.672;2022-09-13T02:21:54;18.17;;;5.18;;
61907;SDS011;47864;52.526;19.672;2022-09-13T02:24:04;13.23;;;5.35;;
61907;SDS011;47864;52.526;19.672;2022-09-13T02:26:08;10.05;;;4.63;;
61907;SDS011;47864;52.526;19.672;2022-09-13T02:28:14;11.82;;;5.07;;
61907;SDS011;47864;52.526;19.672;2022-09-13T02:30:21;15.80;;;5.30;;
61907;SDS011;47864;52.526;19.672;2022-09-13T02:34:41;20.25;;;5.32;;
61907;SDS011;47864;52.526;19.672;2022-09-13T02:37:16;11.80;;;5.55;;
61907;SDS011;47864;52.526;19.672;2022-09-13T02:39:18;14.15;;;5.50;;
61907;SDS011;47864;52.526;19.672;2022-09-13T02:43:37;10.45;;;5.07;;
61907;SDS011;47864;52.526;19.672;2022-09-13T02:45:54;15.77;;;5.68;;
61907;SDS011;47864;52.526;19.672;2022-09-13T02:47:59;13.38;;;6.05;;
61907;SDS011;47864;52.526;19.672;2022-09-13T02:50:31;18.55;;;7.63;;
61907;SDS011;47864;52.526;19.672;2022-09-13T02:52:36;23.17;;;6.80;;
61907;SDS011;47864;52.526;19.672;2022-09-13T02:55:00;47.85;;;8.10;;
61907;SDS011;47864;52.526;19.672;2022-09-13T02:57:21;27.48;;;6.05;;
61907;SDS011;47864;52.526;19.672;2022-09-13T02:59:30;20.65;;;6.30;;
61907;SDS011;47864;52.526;19.672;2022-09-13T03:01:32;16.88;;;5.93;;
61907;SDS011;47864;52.526;19.672;2022-09-13T03:03:37;20.05;;;7.40;;
61907;SDS011;47864;52.526;19.672;2022-09-13T03:05:39;28.30;;;8.00;;
61907;SDS011;47864;52.526;19.672;2022-09-13T03:07:42;24.55;;;7.75;;
61907;SDS011;47864;52.526;19.672;2022-09-13T03:10:05;26.10;;;9.07;;
61907;SDS011;47864;52.526;19.672;2022-09-13T03:12:12;21.60;;;7.65;;
61907;SDS011;47864;52.526;19.672;2022-09-13T03:14:35;29.27;;;7.20;;
61907;SDS011;47864;52.526;19.672;2022-09-13T03:17:45;17.83;;;6.40;;
61907;SDS011;47864;52.526;19.672;2022-09-13T03:24:23;19.27;;;7.57;;
61907;SDS011;47864;52.526;19.672;2022-09-13T03:28:53;16.92;;;7.80;;
61907;SDS011;47864;52.526;19.672;2022-09-13T03:31:17;14.98;;;7.72;;
61907;SDS011;47864;52.526;19.672;2022-09-13T03:33:30;27.58;;;8.80;;
61907;SDS011;47864;52.526;19.672;2022-09-13T03:38:04;14.00;;;7.45;;
61907;SDS011;47864;52.526;19.672;2022-09-13T03:40:12;9.20;;;5.28;;
61907;SDS011;47864;52.526;19.672;2022-09-13T03:44:37;15.40;;;7.25;;
61907;SDS011;47864;52.526;19.672;2022-09-13T03:46:46;11.05;;;7.25;;
61907;SDS011;47864;52.526;19.672;2022-09-13T03:48:52;13.00;;;7.72;;
61907;SDS011;47864;52.526;19.672;2022-09-13T03:50:55;11.30;;;7.30;;
61907;SDS011;47864;52.526;19.672;2022-09-13T03:52:59;10.95;;;7.25;;
61907;SDS011;47864;52.526;19.672;2022-09-13T03:55:04;10.25;;;6.85;;
61907;SDS011;47864;52.526;19.672;2022-09-13T03:59:16;9.02;;;6.05;;
61907;SDS011;47864;52.526;19.672;2022-09-13T04:01:19;9.25;;;6.13;;
61907;SDS011;47864;52.526;19.672;2022-09-13T04:03:23;9.73;;;6.68;;
61907;SDS011;47864;52.526;19.672;2022-09-13T04:05:25;22.63;;;6.75;;
61907;SDS011;47864;52.526;19.672;2022-09-13T04:07:26;26.33;;;6.70;;
61907;SDS011;47864;52.526;19.672;2022-09-13T04:09:29;15.93;;;7.13;;
61907;SDS011;47864;52.526;19.672;2022-09-13T04:11:31;11.55;;;7.25;;
61907;SDS011;47864;52.526;19.672;2022-09-13T04:13:34;10.93;;;7.38;;
61907;SDS011;47864;52.526;19.672;2022-09-13T04:15:36;16.63;;;7.10;;
61907;SDS011;47864;52.526;19.672;2022-09-13T04:17:38;15.30;;;7.75;;
61907;SDS011;47864;52.526;19.672;2022-09-13T04:19:39;15.75;;;9.23;;
61907;SDS011;47864;52.526;19.672;2022-09-13T04:21:42;13.35;;;8.93;;
61907;SDS011;47864;52.526;19.672;2022-09-13T04:23:43;18.30;;;8.98;;
61907;SDS011;47864;52.526;19.672;2022-09-13T04:25:50;32.58;;;9.80;;
61907;SDS011;47864;52.526;19.672;2022-09-13T04:27:53;34.25;;;11.15;;
61907;SDS011;47864;52.526;19.672;2022-09-13T04:29:58;29.50;;;10.18;;
61907;SDS011;47864;52.526;19.672;2022-09-13T04:32:00;30.80;;;9.75;;
61907;SDS011;47864;52.526;19.672;2022-09-13T04:34:02;22.63;;;10.23;;
61907;SDS011;47864;52.526;19.672;2022-09-13T04:36:04;13.75;;;9.23;;
61907;SDS011;47864;52.526;19.672;2022-09-13T04:38:06;19.45;;;9.52;;
61907;SDS011;47864;52.526;19.672;2022-09-13T04:40:08;13.82;;;9.52;;
61907;SDS011;47864;52.526;19.672;2022-09-13T04:42:11;18.33;;;9.40;;
61907;SDS011;47864;52.526;19.672;2022-09-13T04:44:14;14.10;;;9.77;;
61907;SDS011;47864;52.526;19.672;2022-09-13T04:46:17;20.13;;;10.27;;
61907;SDS011;47864;52.526;19.672;2022-09-13T04:48:19;24.27;;;11.20;;
61907;SDS011;47864;52.526;19.672;2022-09-13T04:50:21;24.38;;;10.90;;
61907;SDS011;47864;52.526;19.672;2022-09-13T04:52:24;18.92;;;10.23;;
61907;SDS011;47864;52.526;19.672;2022-09-13T04:54:26;27.92;;;11.63;;
61907;SDS011;47864;52.526;19.672;2022-09-13T04:56:27;20.95;;;9.55;;
61907;SDS011;47864;52.526;19.672;2022-09-13T04:58:30;22.63;;;8.50;;
61907;SDS011;47864;52.526;19.672;2022-09-13T05:00:32;31.45;;;9.00;;
61907;SDS011;47864;52.526;19.672;2022-09-13T05:02:34;48.58;;;9.20;;
61907;SDS011;47864;52.526;19.672;2022-09-13T05:04:36;46.15;;;9.40;;
61907;SDS011;47864;52.526;19.672;2022-09-13T05:06:38;49.15;;;9.30;;
61907;SDS011;47864;52.526;19.672;2022-09-13T05:08:40;53.33;;;9.18;;
61907;SDS011;47864;52.526;19.672;2022-09-13T05:10:42;49.00;;;8.80;;
61907;SDS011;47864;52.526;19.672;2022-09-13T05:12:43;77.78;;;9.52;;
61907;SDS011;47864;52.526;19.672;2022-09-13T05:14:46;28.92;;;7.55;;
61907;SDS011;47864;52.526;19.672;2022-09-13T05:16:48;45.67;;;9.20;;
61907;SDS011;47864;52.526;19.672;2022-09-13T05:18:49;42.65;;;9.32;;
61907;SDS011;47864;52.526;19.672;2022-09-13T05:20:58;41.05;;;8.30;;
61907;SDS011;47864;52.526;19.672;2022-09-13T05:23:01;38.83;;;8.38;;
61907;SDS011;47864;52.526;19.672;2022-09-13T05:25:03;18.73;;;8.77;;
61907;SDS011;47864;52.526;19.672;2022-09-13T05:27:05;19.75;;;8.20;;
61907;SDS011;47864;52.526;19.672;2022-09-13T05:29:07;35.72;;;10.38;;
61907;SDS011;47864;52.526;19.672;2022-09-13T05:31:14;32.50;;;9.57;;
61907;SDS011;47864;52.526;19.672;2022-09-13T05:33:18;28.23;;;9.43;;
61907;SDS011;47864;52.526;19.672;2022-09-13T05:35:20;16.75;;;8.25;;
61907;SDS011;47864;52.526;19.672;2022-09-13T05:37:22;40.75;;;8.98;;
61907;SDS011;47864;52.526;19.672;2022-09-13T05:39:24;35.03;;;8.52;;
61907;SDS011;47864;52.526;19.672;2022-09-13T05:41:44;33.92;;;7.82;;
61907;SDS011;47864;52.526;19.672;2022-09-13T05:43:46;15.88;;;8.30;;
61907;SDS011;47864;52.526;19.672;2022-09-13T05:45:47;16.63;;;7.53;;
61907;SDS011;47864;52.526;19.672;2022-09-13T05:47:50;16.30;;;7.18;;
61907;SDS011;47864;52.526;19.672;2022-09-13T05:49:52;22.23;;;7.72;;
61907;SDS011;47864;52.526;19.672;2022-09-13T05:52:14;22.20;;;7.43;;
61907;SDS011;47864;52.526;19.672;2022-09-13T05:54:16;18.83;;;7.30;;
61907;SDS011;47864;52.526;19.672;2022-09-13T05:56:21;27.35;;;9.77;;
61907;SDS011;47864;52.526;19.672;2022-09-13T05:58:25;17.33;;;7.38;;
61907;SDS011;47864;52.526;19.672;2022-09-13T06:00:26;16.15;;;7.30;;
61907;SDS011;47864;52.526;19.672;2022-09-13T06:02:29;22.73;;;7.55;;
61907;SDS011;47864;52.526;19.672;2022-09-13T06:04:31;16.13;;;7.00;;
61907;SDS011;47864;52.526;19.672;2022-09-13T06:06:33;19.80;;;7.72;;
61907;SDS011;47864;52.526;19.672;2022-09-13T06:08:35;10.35;;;7.32;;
61907;SDS011;47864;52.526;19.672;2022-09-13T06:10:37;25.88;;;9.25;;
61907;SDS011;47864;52.526;19.672;2022-09-13T06:12:39;16.38;;;7.03;;
61907;SDS011;47864;52.526;19.672;2022-09-13T06:14:43;13.63;;;8.55;;
61907;SDS011;47864;52.526;19.672;2022-09-13T06:16:44;11.70;;;6.82;;
61907;SDS011;47864;52.526;19.672;2022-09-13T06:18:46;11.95;;;7.85;;
61907;SDS011;47864;52.526;19.672;2022-09-13T06:20:49;12.48;;;8.27;;
61907;SDS011;47864;52.526;19.672;2022-09-13T06:22:50;11.52;;;8.30;;
61907;SDS011;47864;52.526;19.672;2022-09-13T06:24:52;11.75;;;7.80;;
61907;SDS011;47864;52.526;19.672;2022-09-13T06:26:54;13.18;;;7.90;;
61907;SDS011;47864;52.526;19.672;2022-09-13T06:28:57;13.60;;;8.38;;
61907;SDS011;47864;52.526;19.672;2022-09-13T06:30:59;10.75;;;7.45;;
61907;SDS011;47864;52.526;19.672;2022-09-13T06:33:12;14.05;;;7.97;;
61907;SDS011;47864;52.526;19.672;2022-09-13T06:35:13;11.27;;;7.20;;
61907;SDS011;47864;52.526;19.672;2022-09-13T06:37:15;9.45;;;6.72;;
61907;SDS011;47864;52.526;19.672;2022-09-13T06:39:17;10.43;;;7.40;;
61907;SDS011;47864;52.526;19.672;2022-09-13T06:41:20;10.68;;;6.68;;
61907;SDS011;47864;52.526;19.672;2022-09-13T06:43:23;8.45;;;6.15;;
61907;SDS011;47864;52.526;19.672;2022-09-13T06:45:25;11.02;;;7.32;;
61907;SDS011;47864;52.526;19.672;2022-09-13T06:47:27;10.10;;;6.38;;
61907;SDS011;47864;52.526;19.672;2022-09-13T06:49:29;8.40;;;6.38;;
61907;SDS011;47864;52.526;19.672;2022-09-13T06:51:31;8.93;;;6.55;;
61907;SDS011;47864;52.526;19.672;2022-09-13T06:53:34;7.68;;;6.00;;
61907;SDS011;47864;52.526;19.672;2022-09-13T06:55:37;9.18;;;6.15;;
61907;SDS011;47864;52.526;19.672;2022-09-13T06:57:39;9.95;;;6.72;;
61907;SDS011;47864;52.526;19.672;2022-09-13T06:59:41;9.02;;;6.25;;
61907;SDS011;47864;52.526;19.672;2022-09-13T07:01:43;9.35;;;6.38;;
61907;SDS011;47864;52.526;19.672;2022-09-13T07:03:46;9.77;;;6.85;;
61907;SDS011;47864;52.526;19.672;2022-09-13T07:05:49;11.43;;;7.47;;
61907;SDS011;47864;52.526;19.672;2022-09-13T07:07:51;6.50;;;5.53;;
61907;SDS011;47864;52.526;19.672;2022-09-13T07:09:53;13.70;;;7.30;;
61907;SDS011;47864;52.526;19.672;2022-09-13T07:11:55;9.77;;;6.78;;
61907;SDS011;47864;52.526;19.672;2022-09-13T07:13:57;11.15;;;6.10;;
61907;SDS011;47864;52.526;19.672;2022-09-13T07:16:00;9.18;;;6.10;;
61907;SDS011;47864;52.526;19.672;2022-09-13T07:20:05;10.18;;;6.97;;
61907;SDS011;47864;52.526;19.672;2022-09-13T07:22:07;9.38;;;5.97;;
61907;SDS011;47864;52.526;19.672;2022-09-13T07:24:09;8.85;;;6.15;;
61907;SDS011;47864;52.526;19.672;2022-09-13T07:26:11;8.60;;;5.80;;
61907;SDS011;47864;52.526;19.672;2022-09-13T07:28:12;8.18;;;5.50;;
61907;SDS011;47864;52.526;19.672;2022-09-13T07:30:14;14.07;;;6.03;;
61907;SDS011;47864;52.526;19.672;2022-09-13T07:32:16;8.90;;;5.40;;
61907;SDS011;47864;52.526;19.672;2022-09-13T07:34:19;9.57;;;5.03;;
61907;SDS011;47864;52.526;19.672;2022-09-13T07:36:22;10.90;;;5.93;;
61907;SDS011;47864;52.526;19.672;2022-09-13T07:38:24;15.20;;;6.80;;
61907;SDS011;47864;52.526;19.672;2022-09-13T07:40:26;10.77;;;5.53;;
61907;SDS011;47864;52.526;19.672;2022-09-13T07:42:28;10.15;;;5.70;;
61907;SDS011;47864;52.526;19.672;2022-09-13T07:44:30;9.30;;;5.28;;
61907;SDS011;47864;52.526;19.672;2022-09-13T07:46:32;10.20;;;7.60;;
61907;SDS011;47864;52.526;19.672;2022-09-13T07:48:35;8.80;;;5.30;;
61907;SDS011;47864;52.526;19.672;2022-09-13T07:50:39;13.75;;;6.65;;
61907;SDS011;47864;52.526;19.672;2022-09-13T07:52:41;8.05;;;4.97;;
61907;SDS011;47864;52.526;19.672;2022-09-13T07:54:42;11.60;;;5.35;;
61907;SDS011;47864;52.526;19.672;2022-09-13T07:56:44;8.18;;;4.97;;
61907;SDS011;47864;52.526;19.672;2022-09-13T07:58:47;8.23;;;4.70;;
61907;SDS011;47864;52.526;19.672;2022-09-13T08:02:51;9.13;;;5.72;;
61907;SDS011;47864;52.526;19.672;2022-09-13T08:04:53;11.48;;;6.50;;
61907;SDS011;47864;52.526;19.672;2022-09-13T08:06:55;11.13;;;5.90;;
61907;SDS011;47864;52.526;19.672;2022-09-13T08:08:57;7.70;;;4.95;;
61907;SDS011;47864;52.526;19.672;2022-09-13T08:10:59;11.18;;;5.68;;
61907;SDS011;47864;52.526;19.672;2022-09-13T08:13:02;9.18;;;5.57;;
61907;SDS011;47864;52.526;19.672;2022-09-13T08:15:04;9.80;;;5.57;;
61907;SDS011;47864;52.526;19.672;2022-09-13T08:17:06;15.18;;;5.25;;
61907;SDS011;47864;52.526;19.672;2022-09-13T08:19:10;12.15;;;7.60;;
61907;SDS011;47864;52.526;19.672;2022-09-13T08:21:13;9.65;;;6.40;;
61907;SDS011;47864;52.526;19.672;2022-09-13T08:23:15;12.60;;;6.47;;
61907;SDS011;47864;52.526;19.672;2022-09-13T08:25:17;12.25;;;6.90;;
61907;SDS011;47864;52.526;19.672;2022-09-13T08:27:19;10.35;;;6.10;;
61907;SDS011;47864;52.526;19.672;2022-09-13T08:29:21;9.60;;;5.97;;
61907;SDS011;47864;52.526;19.672;2022-09-13T08:31:23;11.95;;;6.53;;
61907;SDS011;47864;52.526;19.672;2022-09-13T08:33:25;11.23;;;6.63;;
61907;SDS011;47864;52.526;19.672;2022-09-13T08:35:30;10.20;;;6.30;;
61907;SDS011;47864;52.526;19.672;2022-09-13T08:37:33;8.93;;;5.70;;
61907;SDS011;47864;52.526;19.672;2022-09-13T08:39:34;10.65;;;6.53;;
61907;SDS011;47864;52.526;19.672;2022-09-13T08:43:53;10.15;;;6.63;;
61907;SDS011;47864;52.526;19.672;2022-09-13T08:48:33;14.50;;;7.53;;
61907;SDS011;47864;52.526;19.672;2022-09-13T08:50:37;17.40;;;9.75;;
61907;SDS011;47864;52.526;19.672;2022-09-13T08:55:01;9.90;;;6.60;;
61907;SDS011;47864;52.526;19.672;2022-09-13T09:02:08;12.48;;;6.43;;
61907;SDS011;47864;52.526;19.672;2022-09-13T09:04:26;9.73;;;5.97;;
61907;SDS011;47864;52.526;19.672;2022-09-13T09:06:35;10.82;;;6.35;;
61907;SDS011;47864;52.526;19.672;2022-09-13T09:08:39;13.18;;;6.50;;
61907;SDS011;47864;52.526;19.672;2022-09-13T09:10:52;11.68;;;6.90;;
61907;SDS011;47864;52.526;19.672;2022-09-13T09:15:47;11.90;;;7.25;;
61907;SDS011;47864;52.526;19.672;2022-09-13T09:20:06;19.48;;;10.45;;
61907;SDS011;47864;52.526;19.672;2022-09-13T09:22:18;13.00;;;6.53;;
61907;SDS011;47864;52.526;19.672;2022-09-13T09:24:22;13.55;;;8.25;;
61907;SDS011;47864;52.526;19.672;2022-09-13T09:26:26;10.07;;;6.70;;
61907;SDS011;47864;52.526;19.672;2022-09-13T09:28:30;13.02;;;6.38;;
61907;SDS011;47864;52.526;19.672;2022-09-13T09:30:35;10.55;;;6.32;;
61907;SDS011;47864;52.526;19.672;2022-09-13T09:37:16;11.85;;;7.25;;
61907;SDS011;47864;52.526;19.672;2022-09-13T09:39:21;11.82;;;7.15;;
61907;SDS011;47864;52.526;19.672;2022-09-13T09:41:30;10.55;;;6.00;;
61907;SDS011;47864;52.526;19.672;2022-09-13T09:43:37;11.55;;;6.90;;
61907;SDS011;47864;52.526;19.672;2022-09-13T09:45:47;12.30;;;6.80;;
61907;SDS011;47864;52.526;19.672;2022-09-13T09:47:52;10.38;;;6.38;;
61907;SDS011;47864;52.526;19.672;2022-09-13T09:49:58;9.88;;;6.55;;
61907;SDS011;47864;52.526;19.672;2022-09-13T09:52:08;9.48;;;6.18;;
61907;SDS011;47864;52.526;19.672;2022-09-13T09:54:13;10.43;;;6.25;;
61907;SDS011;47864;52.526;19.672;2022-09-13T09:56:22;9.98;;;6.55;;
61907;SDS011;47864;52.526;19.672;2022-09-13T10:00:57;8.45;;;6.55;;
61907;SDS011;47864;52.526;19.672;2022-09-13T10:03:01;13.05;;;6.70;;
61907;SDS011;47864;52.526;19.672;2022-09-13T10:05:06;11.25;;;7.25;;
61907;SDS011;47864;52.526;19.672;2022-09-13T10:07:09;11.45;;;7.28;;
61907;SDS011;47864;52.526;19.672;2022-09-13T10:09:24;13.70;;;7.65;;
61907;SDS011;47864;52.526;19.672;2022-09-13T10:11:42;10.13;;;6.47;;
61907;SDS011;47864;52.526;19.672;2022-09-13T10:13:56;10.45;;;6.50;;
61907;SDS011;47864;52.526;19.672;2022-09-13T10:18:16;9.15;;;6.07;;
61907;SDS011;47864;52.526;19.672;2022-09-13T10:20:38;11.73;;;6.20;;
61907;SDS011;47864;52.526;19.672;2022-09-13T10:22:40;9.95;;;5.38;;
61907;SDS011;47864;52.526;19.672;2022-09-13T10:24:42;8.02;;;5.40;;
61907;SDS011;47864;52.526;19.672;2022-09-13T10:26:43;11.32;;;4.70;;
61907;SDS011;47864;52.526;19.672;2022-09-13T10:28:55;8.38;;;4.97;;
61907;SDS011;47864;52.526;19.672;2022-09-13T10:31:01;7.20;;;4.28;;
61907;SDS011;47864;52.526;19.672;2022-09-13T10:33:22;7.15;;;4.15;;
61907;SDS011;47864;52.526;19.672;2022-09-13T10:35:30;7.15;;;4.10;;
61907;SDS011;47864;52.526;19.672;2022-09-13T10:37:33;6.23;;;3.83;;
61907;SDS011;47864;52.526;19.672;2022-09-13T10:39:36;5.60;;;4.28;;
61907;SDS011;47864;52.526;19.672;2022-09-13T10:41:39;8.82;;;4.18;;
61907;SDS011;47864;52.526;19.672;2022-09-13T10:43:42;12.63;;;3.92;;
61907;SDS011;47864;52.526;19.672;2022-09-13T10:45:47;5.15;;;3.13;;
61907;SDS011;47864;52.526;19.672;2022-09-13T10:47:51;8.20;;;3.55;;
61907;SDS011;47864;52.526;19.672;2022-09-13T10:49:56;5.35;;;3.83;;
61907;SDS011;47864;52.526;19.672;2022-09-13T10:51:59;5.55;;;3.50;;
61907;SDS011;47864;52.526;19.672;2022-09-13T10:56:22;10.52;;;3.67;;
61907;SDS011;47864;52.526;19.672;2022-09-13T10:58:26;5.55;;;3.22;;
61907;SDS011;47864;52.526;19.672;2022-09-13T11:00:31;5.07;;;3.28;;
61907;SDS011;47864;52.526;19.672;2022-09-13T11:02:45;4.70;;;3.20;;
61907;SDS011;47864;52.526;19.672;2022-09-13T11:05:06;5.70;;;3.30;;
61907;SDS011;47864;52.526;19.672;2022-09-13T11:09:32;6.43;;;3.17;;
61907;SDS011;47864;52.526;19.672;2022-09-13T11:11:47;5.75;;;3.78;;
61907;SDS011;47864;52.526;19.672;2022-09-13T11:14:09;7.20;;;3.88;;
61907;SDS011;47864;52.526;19.672;2022-09-13T11:16:32;6.63;;;3.55;;
61907;SDS011;47864;52.526;19.672;2022-09-13T11:30:18;6.38;;;4.18;;
61907;SDS011;47864;52.526;19.672;2022-09-13T11:39:57;5.93;;;3.58;;
61907;SDS011;47864;52.526;19.672;2022-09-13T11:44:34;8.07;;;5.03;;
61907;SDS011;47864;52.526;19.672;2022-09-13T11:54:00;4.93;;;3.50;;
61907;SDS011;47864;52.526;19.672;2022-09-13T11:56:06;6.72;;;3.65;;
61907;SDS011;47864;52.526;19.672;2022-09-13T11:58:15;7.05;;;4.28;;
61907;SDS011;47864;52.526;19.672;2022-09-13T12:00:23;6.43;;;3.85;;
61907;SDS011;47864;52.526;19.672;2022-09-13T12:03:10;6.90;;;4.07;;
61907;SDS011;47864;52.526;19.672;2022-09-13T12:05:15;8.35;;;4.32;;
61907;SDS011;47864;52.526;19.672;2022-09-13T12:08:12;5.97;;;3.90;;
61907;SDS011;47864;52.526;19.672;2022-09-13T12:10:02;7.20;;;4.03;;
61907;SDS011;47864;52.526;19.672;2022-09-13T12:12:11;6.05;;;3.80;;
61907;SDS011;47864;52.526;19.672;2022-09-13T12:14:14;6.90;;;4.30;;
61907;SDS011;47864;52.526;19.672;2022-09-13T12:16:34;7.40;;;4.07;;
61907;SDS011;47864;52.526;19.672;2022-09-13T12:18:41;6.20;;;3.85;;
61907;SDS011;47864;52.526;19.672;2022-09-13T12:20:47;7.75;;;4.63;;
61907;SDS011;47864;52.526;19.672;2022-09-13T12:22:52;6.10;;;4.28;;
61907;SDS011;47864;52.526;19.672;2022-09-13T12:24:56;7.18;;;4.43;;
61907;SDS011;47864;52.526;19.672;2022-09-13T12:27:11;10.73;;;5.07;;
61907;SDS011;47864;52.526;19.672;2022-09-13T12:31:51;8.98;;;4.90;;
61907;SDS011;47864;52.526;19.672;2022-09-13T12:33:56;8.00;;;4.55;;
61907;SDS011;47864;52.526;19.672;2022-09-13T12:36:04;8.18;;;4.70;;
61907;SDS011;47864;52.526;19.672;2022-09-13T12:45:41;10.90;;;4.70;;
61907;SDS011;47864;52.526;19.672;2022-09-13T12:58:00;10.23;;;4.90;;
61907;SDS011;47864;52.526;19.672;2022-09-13T13:04:31;6.68;;;4.43;;
61907;SDS011;47864;52.526;19.672;2022-09-13T13:08:59;7.00;;;4.40;;
61907;SDS011;47864;52.526;19.672;2022-09-13T13:11:09;7.07;;;4.10;;
61907;SDS011;47864;52.526;19.672;2022-09-13T13:13:21;10.75;;;4.57;;
61907;SDS011;47864;52.526;19.672;2022-09-13T13:19:49;8.02;;;4.30;;
61907;SDS011;47864;52.526;19.672;2022-09-13T13:21:51;7.57;;;3.90;;
61907;SDS011;47864;52.526;19.672;2022-09-13T13:30:51;6.65;;;4.43;;
61907;SDS011;47864;52.526;19.672;2022-09-13T13:33:04;8.80;;;4.65;;
61907;SDS011;47864;52.526;19.672;2022-09-13T13:35:28;7.10;;;4.72;;
61907;SDS011;47864;52.526;19.672;2022-09-13T13:37:31;5.90;;;4.00;;
61907;SDS011;47864;52.526;19.672;2022-09-13T13:39:41;6.47;;;4.50;;
61907;SDS011;47864;52.526;19.672;2022-09-13T13:42:00;8.45;;;4.50;;
61907;SDS011;47864;52.526;19.672;2022-09-13T13:46:24;7.68;;;4.05;;
61907;SDS011;47864;52.526;19.672;2022-09-13T13:48:40;8.57;;;4.65;;
61907;SDS011;47864;52.526;19.672;2022-09-13T13:51:43;7.20;;;5.03;;
61907;SDS011;47864;52.526;19.672;2022-09-13T13:53:32;13.93;;;5.97;;
61907;SDS011;47864;52.526;19.672;2022-09-13T13:55:46;9.13;;;5.30;;
61907;SDS011;47864;52.526;19.672;2022-09-13T13:57:59;12.90;;;7.00;;
61907;SDS011;47864;52.526;19.672;2022-09-13T14:02:14;8.88;;;6.10;;
61907;SDS011;47864;52.526;19.672;2022-09-13T14:09:27;6.70;;;4.60;;
61907;SDS011;47864;52.526;19.672;2022-09-13T14:18:44;6.35;;;4.57;;
61907;SDS011;47864;52.526;19.672;2022-09-13T14:21:02;6.53;;;4.82;;
61907;SDS011;47864;52.526;19.672;2022-09-13T14:23:18;10.50;;;4.82;;
61907;SDS011;47864;52.526;19.672;2022-09-13T14:25:23;11.05;;;4.68;;
61907;SDS011;47864;52.526;19.672;2022-09-13T14:27:27;7.50;;;5.22;;
61907;SDS011;47864;52.526;19.672;2022-09-13T14:29:31;7.90;;;5.38;;
61907;SDS011;47864;52.526;19.672;2022-09-13T14:31:33;8.52;;;4.80;;
61907;SDS011;47864;52.526;19.672;2022-09-13T14:33:36;7.40;;;5.10;;
61907;SDS011;47864;52.526;19.672;2022-09-13T14:35:39;10.15;;;5.78;;
61907;SDS011;47864;52.526;19.672;2022-09-13T14:37:41;10.82;;;6.80;;
61907;SDS011;47864;52.526;19.672;2022-09-13T14:42:19;8.70;;;5.10;;
61907;SDS011;47864;52.526;19.672;2022-09-13T14:44:21;12.43;;;6.50;;
61907;SDS011;47864;52.526;19.672;2022-09-13T14:46:33;10.45;;;6.32;;
61907;SDS011;47864;52.526;19.672;2022-09-13T14:48:45;7.75;;;5.30;;
61907;SDS011;47864;52.526;19.672;2022-09-13T14:50:51;9.13;;;5.35;;
61907;SDS011;47864;52.526;19.672;2022-09-13T14:53:02;11.10;;;6.18;;
61907;SDS011;47864;52.526;19.672;2022-09-13T14:55:07;11.73;;;6.68;;
61907;SDS011;47864;52.526;19.672;2022-09-13T14:57:18;8.35;;;4.97;;
61907;SDS011;47864;52.526;19.672;2022-09-13T15:01:52;11.52;;;6.20;;
61907;SDS011;47864;52.526;19.672;2022-09-13T15:03:54;7.13;;;4.40;;
61907;SDS011;47864;52.526;19.672;2022-09-13T15:05:59;7.82;;;4.65;;
61907;SDS011;47864;52.526;19.672;2022-09-13T15:08:25;8.55;;;4.65;;
61907;SDS011;47864;52.526;19.672;2022-09-13T15:10:32;7.68;;;5.30;;
61907;SDS011;47864;52.526;19.672;2022-09-13T15:12:53;6.68;;;3.85;;